createdAt,value
2022-10-02T00:02:36.781Z,20.22
2022-10-02T00:05:16.977Z,20.21
2022-10-02T00:07:43.333Z,20.20
2022-10-02T00:10:16.399Z,20.21
2022-10-02T00:12:45.673Z,20.21
2022-10-02T00:15:19.068Z,20.19
2022-10-02T00:17:49.193Z,20.20
2022-10-02T00:20:18.869Z,20.19
2022-10-02T00:22:59.803Z,20.18
2022-10-02T00:25:33.323Z,20.20
2022-10-02T00:28:23.917Z,20.18
2022-10-02T00:31:23.257Z,20.18
2022-10-02T00:34:00.366Z,20.18
2022-10-02T00:36:41.777Z,20.17
2022-10-02T00:39:27.076Z,20.15
2022-10-02T00:42:29.166Z,20.16
2022-10-02T00:45:21.788Z,20.14
2022-10-02T00:48:00.094Z,20.16
2022-10-02T00:50:46.763Z,20.15
2022-10-02T00:53:31.693Z,20.15
2022-10-02T00:56:16.461Z,20.16
2022-10-02T00:59:04.843Z,20.14
2022-10-02T01:01:42.316Z,20.14
2022-10-02T01:04:13.198Z,20.14
2022-10-02T01:06:39.984Z,20.13
2022-10-02T01:09:06.490Z,20.13
2022-10-02T01:11:35.053Z,20.13
2022-10-02T01:14:01.939Z,20.14
2022-10-02T01:16:28.422Z,20.13
2022-10-02T01:18:54.906Z,20.12
2022-10-02T01:21:33.156Z,20.13
2022-10-02T01:24:12.590Z,20.12
2022-10-02T01:26:39.111Z,20.13
2022-10-02T01:29:05.664Z,20.13
2022-10-02T01:31:35.281Z,20.14
2022-10-02T01:34:02.388Z,20.11
2022-10-02T01:36:30.345Z,20.12
2022-10-02T01:38:57.646Z,20.11
2022-10-02T01:41:24.381Z,20.12
2022-10-02T01:43:53.549Z,20.12
2022-10-02T01:46:37.441Z,20.13
2022-10-02T01:49:37.961Z,20.09
2022-10-02T01:52:30.358Z,20.11
2022-10-02T01:55:02.943Z,20.10
2022-10-02T01:57:38.252Z,20.10
2022-10-02T02:00:16.091Z,20.09
2022-10-02T02:03:18.601Z,20.08
2022-10-02T02:05:53.340Z,20.11
2022-10-02T02:08:22.432Z,20.09
2022-10-02T02:10:57.474Z,20.10
2022-10-02T02:13:34.228Z,20.09
2022-10-02T02:16:06.542Z,20.08
2022-10-02T02:18:41.957Z,20.08
2022-10-02T02:21:22.200Z,20.07
2022-10-02T02:23:49.832Z,20.08
2022-10-02T02:26:18.834Z,20.07
2022-10-02T02:28:57.264Z,20.08
2022-10-02T02:31:33.070Z,20.07
2022-10-02T02:34:05.052Z,20.07
2022-10-02T02:36:43.154Z,20.04
2022-10-02T02:39:14.371Z,20.07
2022-10-02T02:41:46.861Z,20.07
2022-10-02T02:44:25.690Z,20.06
2022-10-02T02:47:03.690Z,20.05
2022-10-02T02:49:53.793Z,20.05
2022-10-02T02:52:26.253Z,20.07
2022-10-02T02:54:58.684Z,20.05
2022-10-02T02:57:32.646Z,20.03
2022-10-02T03:00:02.193Z,20.03
2022-10-02T03:02:28.663Z,20.03
2022-10-02T03:04:55.118Z,20.03
2022-10-02T03:07:21.552Z,20.06
2022-10-02T03:10:03.345Z,20.05
2022-10-02T03:12:59.427Z,20.03
2022-10-02T03:15:49.393Z,20.03
2022-10-02T03:18:25.892Z,20.04
2022-10-02T03:21:16.835Z,20.05
2022-10-02T03:24:08.983Z,20.04
2022-10-02T03:27:00.852Z,20.02
2022-10-02T03:29:56.838Z,20.04
2022-10-02T03:32:24.836Z,20.04
2022-10-02T03:34:52.536Z,20.02
2022-10-02T03:37:19.181Z,20.04
2022-10-02T03:39:46.078Z,20.03
2022-10-02T03:42:14.292Z,20.00
2022-10-02T03:44:40.676Z,20.03
2022-10-02T03:47:07.124Z,20.04
2022-10-02T03:49:33.779Z,20.01
2022-10-02T03:52:00.395Z,20.02
2022-10-02T03:54:31.896Z,20.01
2022-10-02T03:57:04.867Z,20.01
2022-10-02T03:59:46.616Z,20.01
2022-10-02T04:02:23.279Z,20.03
2022-10-02T04:05:00.045Z,20.01
2022-10-02T04:07:33.889Z,20.03
2022-10-02T04:10:20.829Z,20.02
2022-10-02T04:12:52.040Z,19.99
2022-10-02T04:15:24.910Z,20.01
2022-10-02T04:18:07.889Z,19.98
2022-10-02T04:20:48.125Z,20.00
2022-10-02T04:23:21.077Z,20.01
2022-10-02T04:25:50.195Z,19.96
2022-10-02T04:28:21.865Z,19.99
2022-10-02T04:30:48.316Z,19.98
2022-10-02T04:33:24.213Z,19.99
2022-10-02T04:36:00.004Z,19.98
2022-10-02T04:38:36.556Z,19.94
2022-10-02T04:41:39.324Z,19.96
2022-10-02T04:44:24.446Z,19.95
2022-10-02T04:47:12.740Z,19.95
2022-10-02T04:49:45.364Z,19.95
2022-10-02T04:52:36.120Z,19.95
2022-10-02T04:55:17.153Z,19.95
2022-10-02T04:58:24.187Z,19.93
2022-10-02T05:01:01.685Z,19.93
2022-10-02T05:03:40.168Z,19.94
2022-10-02T05:06:24.205Z,19.93
2022-10-02T05:09:08.644Z,19.93
2022-10-02T05:11:52.466Z,19.95
2022-10-02T05:14:34.174Z,19.95
2022-10-02T05:17:19.482Z,19.93
2022-10-02T05:19:58.929Z,19.94
2022-10-02T05:22:35.168Z,19.93
2022-10-02T05:25:17.425Z,19.93
2022-10-02T05:28:02.069Z,19.93
2022-10-02T05:30:38.101Z,19.93
2022-10-02T05:33:11.920Z,19.92
2022-10-02T05:36:05.581Z,19.93
2022-10-02T05:38:37.640Z,19.94
2022-10-02T05:41:13.254Z,19.92
2022-10-02T05:43:48.591Z,19.92
2022-10-02T05:46:23.008Z,19.91
2022-10-02T05:48:58.975Z,19.93
2022-10-02T05:51:40.147Z,19.90
2022-10-02T05:54:47.001Z,19.91
2022-10-02T05:57:21.411Z,19.93
2022-10-02T06:00:05.896Z,19.90
2022-10-02T06:03:11.752Z,19.90
2022-10-02T06:05:40.903Z,19.90
2022-10-02T06:08:11.605Z,19.89
2022-10-02T06:10:44.087Z,19.91
2022-10-02T06:13:24.168Z,19.89
2022-10-02T06:16:01.269Z,19.90
2022-10-02T06:18:31.490Z,19.91
2022-10-02T06:21:09.464Z,19.89
2022-10-02T06:23:51.761Z,19.89
2022-10-02T06:26:28.676Z,19.90
2022-10-02T06:29:03.444Z,19.91
2022-10-02T06:31:40.263Z,19.91
2022-10-02T06:34:15.566Z,19.92
2022-10-02T06:36:58.965Z,19.91
2022-10-02T06:39:41.863Z,19.91
2022-10-02T06:42:23.252Z,19.92
2022-10-02T06:44:59.260Z,19.93
2022-10-02T06:47:47.575Z,19.92
2022-10-02T06:50:47.795Z,19.91
2022-10-02T06:53:55.527Z,19.92
2022-10-02T06:56:37.496Z,19.94
2022-10-02T06:59:25.776Z,19.96
2022-10-02T07:02:00.715Z,19.97
2022-10-02T07:04:42.819Z,19.98
2022-10-02T07:07:20.956Z,20.02
2022-10-02T07:10:16.335Z,20.05
2022-10-02T07:13:02.926Z,20.08
2022-10-02T07:15:36.989Z,20.09
2022-10-02T07:18:25.117Z,20.10
2022-10-02T07:21:07.815Z,20.12
2022-10-02T07:23:37.077Z,20.14
2022-10-02T07:26:32.034Z,20.15
2022-10-02T07:29:13.437Z,20.17
2022-10-02T07:32:24.102Z,20.17
2022-10-02T07:34:59.058Z,20.19
2022-10-02T07:37:45.742Z,20.20
2022-10-02T07:40:36.407Z,20.22
2022-10-02T07:43:32.728Z,20.22
2022-10-02T07:45:59.126Z,20.22
2022-10-02T07:48:37.467Z,20.21
2022-10-02T07:51:36.901Z,20.24
2022-10-02T07:54:21.719Z,20.26
2022-10-02T07:56:49.051Z,20.33
2022-10-02T07:59:17.415Z,20.37
2022-10-02T08:01:46.461Z,20.42
2022-10-02T08:04:26.955Z,20.47
2022-10-02T08:06:58.963Z,20.52
2022-10-02T08:09:36.554Z,20.56
2022-10-02T08:12:27.575Z,20.63
2022-10-02T08:14:55.814Z,20.68
2022-10-02T08:17:30.340Z,20.71
2022-10-02T08:20:03.335Z,20.73
2022-10-02T08:22:35.649Z,20.77
2022-10-02T08:25:08.019Z,20.81
2022-10-02T08:27:46.504Z,20.82
2022-10-02T08:30:14.477Z,20.85
2022-10-02T08:32:40.994Z,20.86
2022-10-02T08:35:19.490Z,20.87
2022-10-02T08:38:10.087Z,20.91
2022-10-02T08:41:05.019Z,20.90
2022-10-02T08:43:53.846Z,20.89
2022-10-02T08:46:58.359Z,20.88
2022-10-02T08:49:43.043Z,20.86
2022-10-02T08:52:21.487Z,20.85
2022-10-02T08:55:19.133Z,20.82
2022-10-02T08:57:48.552Z,20.80
2022-10-02T09:00:25.618Z,20.76
2022-10-02T09:03:11.076Z,20.75
2022-10-02T09:05:56.324Z,20.73
2022-10-02T09:08:44.961Z,20.76
2022-10-02T09:11:29.040Z,20.75
2022-10-02T09:14:10.743Z,20.77
2022-10-02T09:17:08.243Z,20.82
2022-10-02T09:19:43.873Z,20.86
2022-10-02T09:22:28.255Z,20.89
2022-10-02T09:25:25.815Z,20.93
2022-10-02T09:28:13.822Z,20.94
2022-10-02T09:30:50.334Z,20.94
2022-10-02T09:33:39.389Z,20.94
2022-10-02T09:36:28.406Z,20.93
2022-10-02T09:39:13.316Z,20.93
2022-10-02T09:41:51.788Z,20.91
2022-10-02T09:44:36.952Z,20.89
2022-10-02T09:47:54.859Z,20.87
2022-10-02T09:50:40.414Z,20.85
2022-10-02T09:53:12.823Z,20.83
2022-10-02T09:56:04.423Z,20.81
2022-10-02T09:58:59.592Z,20.78
2022-10-02T10:02:00.000Z,20.78
2022-10-02T10:05:05.567Z,20.76
2022-10-02T10:08:05.854Z,20.74
2022-10-02T10:10:47.541Z,20.73
2022-10-02T10:13:32.365Z,20.71
2022-10-02T10:16:36.212Z,20.68
2022-10-02T10:19:42.036Z,20.67
2022-10-02T10:22:38.954Z,20.67
2022-10-02T10:25:30.453Z,20.66
2022-10-02T10:28:09.063Z,20.65
2022-10-02T10:30:47.907Z,20.67
2022-10-02T10:33:51.409Z,20.69
2022-10-02T10:37:05.974Z,20.68
2022-10-02T10:40:10.991Z,20.69
2022-10-02T10:43:06.889Z,20.68
2022-10-02T10:46:06.312Z,20.67
2022-10-02T10:49:04.152Z,20.66
2022-10-02T10:51:41.348Z,20.67
2022-10-02T10:54:48.593Z,20.71
2022-10-02T10:57:52.143Z,20.77
2022-10-02T11:00:25.926Z,20.81
2022-10-02T11:02:56.122Z,20.89
2022-10-02T11:05:40.602Z,20.94
2022-10-02T11:08:31.757Z,21.01
2022-10-02T11:11:23.280Z,21.08
2022-10-02T11:13:59.308Z,21.14
2022-10-02T11:16:37.913Z,21.20
2022-10-02T11:19:21.612Z,21.26
2022-10-02T11:22:00.374Z,21.33
2022-10-02T11:24:45.530Z,21.38
2022-10-02T11:27:14.948Z,21.45
2022-10-02T11:29:56.495Z,21.49
2022-10-02T11:32:55.806Z,21.54
2022-10-02T11:35:51.035Z,21.60
2022-10-02T11:38:29.704Z,21.66
2022-10-02T11:41:08.149Z,21.70
2022-10-02T11:43:59.661Z,21.74
2022-10-02T11:46:51.347Z,21.79
2022-10-02T11:49:35.921Z,21.84
2022-10-02T11:52:22.642Z,21.88
2022-10-02T11:55:28.202Z,21.91
2022-10-02T11:58:37.221Z,21.97
2022-10-02T12:04:28.169Z,21.97
2022-10-02T12:07:33.106Z,21.97
2022-10-02T12:10:25.630Z,21.98
2022-10-02T12:13:30.929Z,21.97
2022-10-02T12:16:18.608Z,21.97
2022-10-02T12:19:05.312Z,21.93
2022-10-02T12:22:08.680Z,21.92
2022-10-02T12:25:46.442Z,21.89
2022-10-02T12:28:20.164Z,21.87
2022-10-02T12:31:05.256Z,21.83
2022-10-02T12:33:54.294Z,21.82
2022-10-02T12:36:45.053Z,21.80
2022-10-02T12:39:28.260Z,21.81
2022-10-02T12:42:14.949Z,21.80
2022-10-02T12:45:08.009Z,21.79
2022-10-02T12:48:00.196Z,21.80
2022-10-02T12:51:05.946Z,21.80
2022-10-02T12:54:00.765Z,21.78
2022-10-02T12:56:45.915Z,21.76
2022-10-02T12:59:34.879Z,21.75
2022-10-02T13:02:59.000Z,21.72
2022-10-02T13:05:44.631Z,21.69
2022-10-02T13:08:24.952Z,21.67
2022-10-02T13:11:00.913Z,21.66
2022-10-02T13:13:45.587Z,21.64
2022-10-02T13:16:21.027Z,21.62
2022-10-02T13:19:11.284Z,21.59
2022-10-02T13:21:58.963Z,21.55
2022-10-02T13:24:44.201Z,21.53
2022-10-02T13:27:38.108Z,21.50
2022-10-02T13:30:17.944Z,21.48
2022-10-02T13:33:11.602Z,21.44
2022-10-02T13:35:47.464Z,21.45
2022-10-02T13:38:16.643Z,21.48
2022-10-02T13:40:46.156Z,21.48
2022-10-02T13:43:42.519Z,21.50
2022-10-02T13:46:38.584Z,21.51
2022-10-02T13:49:16.359Z,21.51
2022-10-02T13:51:57.716Z,21.52
2022-10-02T13:54:35.726Z,21.53
2022-10-02T13:57:36.109Z,21.55
2022-10-02T14:00:11.037Z,21.55
2022-10-02T14:02:52.895Z,21.57
2022-10-02T14:05:31.134Z,21.59
2022-10-02T14:08:15.108Z,21.59
2022-10-02T14:10:56.831Z,21.60
2022-10-02T14:13:42.249Z,21.61
2022-10-02T14:16:25.544Z,21.63
2022-10-02T14:19:29.253Z,21.64
2022-10-02T14:22:14.355Z,21.65
2022-10-02T14:25:29.675Z,21.66
2022-10-02T14:28:21.562Z,21.66
2022-10-02T14:31:17.786Z,21.67
2022-10-02T14:33:50.400Z,21.66
2022-10-02T14:36:35.503Z,21.67
2022-10-02T14:39:19.085Z,21.67
2022-10-02T14:42:16.851Z,21.67
2022-10-02T14:45:21.762Z,21.69
2022-10-02T14:48:07.267Z,21.71
2022-10-02T14:50:51.866Z,21.70
2022-10-02T14:53:43.742Z,21.71
2022-10-02T14:56:27.888Z,21.71
2022-10-02T14:59:09.874Z,21.71
2022-10-02T15:01:45.240Z,21.70
2022-10-02T15:04:39.855Z,21.70
2022-10-02T15:07:15.226Z,21.69
2022-10-02T15:10:03.608Z,21.68
2022-10-02T15:12:44.301Z,21.69
2022-10-02T15:15:17.382Z,21.67
2022-10-02T15:17:56.972Z,21.66
2022-10-02T15:20:30.449Z,21.66
2022-10-02T15:23:03.452Z,21.65
2022-10-02T15:25:49.959Z,21.61
2022-10-02T15:28:36.334Z,21.63
2022-10-02T15:31:22.229Z,21.63
2022-10-02T15:34:16.117Z,21.58
2022-10-02T15:37:18.441Z,21.58
2022-10-02T15:40:05.183Z,21.54
2022-10-02T15:42:49.893Z,21.53
2022-10-02T15:45:56.121Z,21.49
2022-10-02T15:48:52.569Z,21.46
2022-10-02T15:51:53.665Z,21.46
2022-10-02T15:54:26.018Z,21.44
2022-10-02T15:57:13.972Z,21.41
2022-10-02T16:00:08.746Z,21.39
2022-10-02T16:02:45.226Z,21.37
2022-10-02T16:05:29.423Z,21.35
2022-10-02T16:08:11.853Z,21.33
2022-10-02T16:11:00.258Z,21.30
2022-10-02T16:13:47.253Z,21.28
2022-10-02T16:16:14.152Z,21.26
2022-10-02T16:19:18.790Z,21.24
2022-10-02T16:22:17.922Z,21.23
2022-10-02T16:25:16.665Z,21.22
2022-10-02T16:27:53.158Z,21.18
2022-10-02T16:30:22.388Z,21.18
2022-10-02T16:33:10.410Z,21.15
2022-10-02T16:35:58.492Z,21.15
2022-10-02T16:39:15.843Z,21.14
2022-10-02T16:41:58.698Z,21.13
2022-10-02T16:44:50.275Z,21.13
2022-10-02T16:47:43.046Z,21.10
2022-10-02T16:50:28.843Z,21.11
2022-10-02T16:53:05.427Z,21.10
2022-10-02T16:55:47.233Z,21.10
2022-10-02T16:58:26.030Z,21.08
2022-10-02T17:01:02.422Z,21.06
2022-10-02T17:03:46.898Z,21.06
2022-10-02T17:06:27.179Z,21.05
2022-10-02T17:09:14.324Z,21.04
2022-10-02T17:12:07.434Z,21.04
2022-10-02T17:15:02.743Z,21.04
2022-10-02T17:17:46.815Z,21.03
2022-10-02T17:20:20.230Z,21.03
2022-10-02T17:23:00.675Z,21.02
2022-10-02T17:25:49.252Z,21.02
2022-10-02T17:28:25.448Z,21.02
2022-10-02T17:30:59.059Z,21.02
2022-10-02T17:33:27.764Z,21.00
2022-10-02T17:35:54.136Z,21.00
2022-10-02T17:38:35.104Z,21.00
2022-10-02T17:41:15.161Z,20.98
2022-10-02T17:44:22.466Z,20.95
2022-10-02T17:47:13.102Z,20.94
2022-10-02T17:49:51.685Z,20.93
2022-10-02T17:53:02.922Z,20.93
2022-10-02T17:55:56.976Z,20.93
2022-10-02T17:58:29.714Z,20.91
2022-10-02T18:01:22.152Z,20.90
2022-10-02T18:03:51.373Z,20.93
2022-10-02T18:06:38.078Z,20.89
2022-10-02T18:09:07.633Z,20.90
2022-10-02T18:11:57.185Z,20.89
2022-10-02T18:14:51.446Z,20.88
2022-10-02T18:17:38.412Z,20.87
2022-10-02T18:20:29.748Z,20.86
2022-10-02T18:23:08.454Z,20.86
2022-10-02T18:25:45.532Z,20.85
2022-10-02T18:28:30.012Z,20.85
2022-10-02T18:31:08.518Z,20.87
2022-10-02T18:33:50.233Z,20.84
2022-10-02T18:36:20.282Z,20.85
2022-10-02T18:38:59.282Z,20.84
2022-10-02T18:41:44.655Z,20.83
2022-10-02T18:44:42.890Z,20.82
2022-10-02T18:47:34.647Z,20.82
2022-10-02T18:50:10.804Z,20.83
2022-10-02T18:52:49.552Z,20.81
2022-10-02T18:55:34.594Z,20.81
2022-10-02T18:58:41.793Z,20.80
2022-10-02T19:01:11.049Z,20.80
2022-10-02T19:04:07.333Z,20.78
2022-10-02T19:06:55.319Z,20.77
2022-10-02T19:09:27.698Z,20.78
2022-10-02T19:11:57.592Z,20.78
2022-10-02T19:14:34.961Z,20.77
2022-10-02T19:17:10.118Z,20.77
2022-10-02T19:19:36.983Z,20.77
2022-10-02T19:22:30.272Z,20.74
2022-10-02T19:25:07.102Z,20.76
2022-10-02T19:27:36.227Z,20.76
2022-10-02T19:30:06.832Z,20.75
2022-10-02T19:32:39.170Z,20.75
2022-10-02T19:35:15.625Z,20.77
2022-10-02T19:37:45.136Z,20.76
2022-10-02T19:40:23.955Z,20.76
2022-10-02T19:43:03.989Z,20.74
2022-10-02T19:45:34.372Z,20.74
2022-10-02T19:48:08.784Z,20.75
2022-10-02T19:50:46.513Z,20.76
2022-10-02T19:53:23.341Z,20.74
2022-10-02T19:55:55.758Z,20.73
2022-10-02T19:58:26.975Z,20.74
2022-10-02T20:00:55.293Z,20.72
2022-10-02T20:03:24.527Z,20.72
2022-10-02T20:05:54.472Z,20.71
2022-10-02T20:08:25.623Z,20.71
2022-10-02T20:10:58.872Z,20.72
2022-10-02T20:13:48.385Z,20.69
2022-10-02T20:16:44.023Z,20.69
2022-10-02T20:19:17.791Z,20.71
2022-10-02T20:21:57.096Z,20.70
2022-10-02T20:24:37.281Z,20.70
2022-10-02T20:27:11.789Z,20.69
2022-10-02T20:29:46.920Z,20.70
2022-10-02T20:32:21.990Z,20.68
2022-10-02T20:34:59.023Z,20.70
2022-10-02T20:37:29.537Z,20.67
2022-10-02T20:40:02.707Z,20.68
2022-10-02T20:42:40.664Z,20.67
2022-10-02T20:45:12.950Z,20.67
2022-10-02T20:48:01.552Z,20.68
2022-10-02T20:50:53.708Z,20.68
2022-10-02T20:53:26.099Z,20.68
2022-10-02T20:56:11.836Z,20.67
2022-10-02T20:58:56.951Z,20.67
2022-10-02T21:01:54.882Z,20.66
2022-10-02T21:04:36.630Z,20.64
2022-10-02T21:07:06.551Z,20.63
2022-10-02T21:10:10.904Z,20.62
2022-10-02T21:12:58.693Z,20.62
2022-10-02T21:15:31.091Z,20.63
2022-10-02T21:18:20.801Z,20.60
2022-10-02T21:21:24.582Z,20.61
2022-10-02T21:24:15.975Z,20.61
2022-10-02T21:26:48.639Z,20.60
2022-10-02T21:29:26.111Z,20.60
2022-10-02T21:32:11.330Z,20.58
2022-10-02T21:35:02.999Z,20.59
2022-10-02T21:37:47.782Z,20.59
2022-10-02T21:40:51.349Z,20.60
2022-10-02T21:43:55.231Z,20.59
2022-10-02T21:46:27.734Z,20.59
2022-10-02T21:49:19.084Z,20.60
2022-10-02T21:51:45.497Z,20.57
2022-10-02T21:54:45.568Z,20.58
2022-10-02T21:57:30.804Z,20.58
2022-10-02T22:00:07.874Z,20.58
2022-10-02T22:02:39.991Z,20.58
2022-10-02T22:05:24.506Z,20.58
2022-10-02T22:07:56.438Z,20.58
2022-10-02T22:10:44.044Z,20.57
2022-10-02T22:13:25.815Z,20.57
2022-10-02T22:16:08.023Z,20.58
2022-10-02T22:18:59.258Z,20.59
2022-10-02T22:21:35.000Z,20.58
2022-10-02T22:24:04.428Z,20.59
2022-10-02T22:26:57.746Z,20.57
2022-10-02T22:29:44.416Z,20.58
2022-10-02T22:32:56.266Z,20.56
2022-10-02T22:35:47.303Z,20.56
2022-10-02T22:38:16.773Z,20.56
2022-10-02T22:40:48.285Z,20.55
2022-10-02T22:43:37.990Z,20.55
2022-10-02T22:46:10.075Z,20.55
2022-10-02T22:48:48.501Z,20.55
2022-10-02T22:51:27.529Z,20.55
2022-10-02T22:54:07.107Z,20.55
2022-10-02T22:56:41.294Z,20.54
2022-10-02T22:59:36.441Z,20.55
2022-10-02T23:02:08.357Z,20.55
2022-10-02T23:04:48.239Z,20.55
2022-10-02T23:07:34.419Z,20.54
2022-10-02T23:10:12.060Z,20.55
2022-10-02T23:12:45.750Z,20.54
2022-10-02T23:15:15.258Z,20.54
2022-10-02T23:17:54.409Z,20.54
2022-10-02T23:20:37.986Z,20.53
2022-10-02T23:23:23.253Z,20.54
2022-10-02T23:25:59.695Z,20.53
2022-10-02T23:28:35.430Z,20.55
2022-10-02T23:31:22.285Z,20.53
2022-10-02T23:34:03.796Z,20.53
2022-10-02T23:36:51.719Z,20.52
2022-10-02T23:39:22.609Z,20.53
2022-10-02T23:41:54.356Z,20.52
2022-10-02T23:44:51.529Z,20.53
2022-10-02T23:47:17.921Z,20.53
2022-10-02T23:49:53.672Z,20.52
2022-10-02T23:52:41.725Z,20.51
2022-10-02T23:55:36.739Z,20.50
2022-10-02T23:58:25.239Z,20.51
